createdAt,value
2023-02-19T00:02:02.058Z,95.12
2023-02-19T00:04:30.845Z,95.38
2023-02-19T00:06:59.463Z,95.39
2023-02-19T00:09:28.177Z,95.48
2023-02-19T00:11:58.138Z,95.43
2023-02-19T00:14:26.740Z,95.50
2023-02-19T00:16:55.389Z,95.43
2023-02-19T00:19:24.069Z,95.46
2023-02-19T00:21:53.159Z,95.94
2023-02-19T00:24:22.538Z,95.67
2023-02-19T00:26:51.226Z,95.68
2023-02-19T00:29:22.579Z,95.42
2023-02-19T00:31:51.346Z,95.55
2023-02-19T00:34:20.111Z,96.19
2023-02-19T00:36:48.804Z,96.19
2023-02-19T00:39:18.604Z,96.12
2023-02-19T00:41:47.505Z,96.10
2023-02-19T00:44:16.426Z,96.39
2023-02-19T00:46:47.919Z,96.12
2023-02-19T00:49:20.007Z,95.96
2023-02-19T00:51:48.951Z,96.25
2023-02-19T00:54:18.450Z,96.33
2023-02-19T00:56:47.390Z,96.62
2023-02-19T00:59:16.439Z,96.62
2023-02-19T01:01:46.451Z,96.43
2023-02-19T01:04:16.406Z,96.04
2023-02-19T01:06:45.193Z,95.64
2023-02-19T01:09:13.830Z,94.43
2023-02-19T01:11:42.517Z,93.47
2023-02-19T01:14:11.648Z,92.35
2023-02-19T01:16:40.295Z,89.92
2023-02-19T01:19:10.404Z,87.53
2023-02-19T01:21:40.653Z,86.04
2023-02-19T01:24:11.872Z,85.14
2023-02-19T01:26:41.295Z,83.98
2023-02-19T01:29:10.537Z,83.18
2023-02-19T01:31:42.014Z,82.61
2023-02-19T01:34:13.015Z,82.69
2023-02-19T01:36:41.748Z,82.36
2023-02-19T01:39:11.892Z,81.71
2023-02-19T01:41:42.323Z,81.92
2023-02-19T01:44:43.999Z,81.11
2023-02-19T01:47:12.867Z,81.46
2023-02-19T01:49:48.791Z,81.41
2023-02-19T01:52:20.089Z,81.74
2023-02-19T01:54:50.120Z,82.09
2023-02-19T01:57:20.699Z,81.64
2023-02-19T01:59:50.979Z,81.81
2023-02-19T02:02:19.694Z,81.76
2023-02-19T02:04:49.756Z,81.37
2023-02-19T02:07:36.064Z,81.15
2023-02-19T02:10:23.944Z,81.06
2023-02-19T02:12:57.833Z,80.90
2023-02-19T02:15:29.544Z,81.02
2023-02-19T02:18:01.331Z,81.06
2023-02-19T02:20:51.919Z,81.17
2023-02-19T02:23:29.153Z,81.11
2023-02-19T02:26:10.456Z,80.72
2023-02-19T02:29:08.923Z,80.98
2023-02-19T02:31:42.595Z,81.51
2023-02-19T02:34:15.514Z,81.70
2023-02-19T02:36:45.869Z,82.95
2023-02-19T02:39:16.972Z,83.72
2023-02-19T02:41:47.078Z,84.39
2023-02-19T02:44:15.641Z,85.44
2023-02-19T02:46:46.491Z,85.39
2023-02-19T02:49:22.976Z,85.50
2023-02-19T02:51:53.659Z,85.30
2023-02-19T02:54:42.749Z,85.60
2023-02-19T02:57:14.652Z,85.16
2023-02-19T02:59:43.958Z,84.62
2023-02-19T03:02:18.592Z,84.23
2023-02-19T03:05:08.772Z,83.92
2023-02-19T03:07:40.780Z,83.63
2023-02-19T03:10:13.508Z,84.47
2023-02-19T03:13:00.499Z,84.29
2023-02-19T03:15:52.775Z,83.80
2023-02-19T03:18:40.531Z,83.86
2023-02-19T03:21:09.911Z,83.88
2023-02-19T03:23:56.596Z,84.83
2023-02-19T03:26:25.928Z,85.45
2023-02-19T03:29:12.537Z,86.24
2023-02-19T03:31:42.313Z,87.65
2023-02-19T03:34:15.774Z,87.97
2023-02-19T03:36:47.467Z,88.43
2023-02-19T03:39:18.923Z,89.36
2023-02-19T03:41:51.621Z,89.65
2023-02-19T03:44:25.945Z,90.14
2023-02-19T03:46:57.148Z,90.23
2023-02-19T03:49:32.096Z,91.00
2023-02-19T03:52:05.697Z,91.60
2023-02-19T03:54:38.386Z,91.83
2023-02-19T03:57:11.476Z,92.96
2023-02-19T03:59:43.826Z,93.16
2023-02-19T04:02:15.196Z,92.83
2023-02-19T04:04:47.010Z,93.38
2023-02-19T04:07:15.632Z,93.91
2023-02-19T04:09:45.718Z,93.89
2023-02-19T04:12:15.523Z,93.78
2023-02-19T04:14:46.793Z,93.95
2023-02-19T04:17:19.976Z,93.68
2023-02-19T04:19:51.376Z,93.50
2023-02-19T04:22:20.577Z,93.14
2023-02-19T04:24:51.012Z,92.74
2023-02-19T04:27:20.010Z,93.34
2023-02-19T04:29:48.808Z,92.48
2023-02-19T04:32:17.412Z,92.71
2023-02-19T04:34:46.053Z,92.26
2023-02-19T04:37:16.089Z,92.00
2023-02-19T04:39:44.870Z,91.29
2023-02-19T04:42:13.474Z,90.78
2023-02-19T04:44:42.106Z,90.74
2023-02-19T04:47:10.770Z,90.53
2023-02-19T04:49:39.412Z,90.34
2023-02-19T04:52:08.007Z,90.13
2023-02-19T04:54:37.980Z,89.79
2023-02-19T04:57:06.642Z,89.42
2023-02-19T04:59:35.476Z,89.81
2023-02-19T05:02:04.086Z,89.90
2023-02-19T05:04:32.757Z,89.36
2023-02-19T05:07:01.464Z,89.63
2023-02-19T05:09:30.060Z,89.67
2023-02-19T05:12:00.026Z,89.76
2023-02-19T05:14:28.645Z,90.27
2023-02-19T05:16:57.259Z,89.57
2023-02-19T05:19:25.949Z,89.05
2023-02-19T05:21:54.558Z,89.55
2023-02-19T05:24:24.393Z,89.39
2023-02-19T05:26:53.015Z,89.37
2023-02-19T05:29:22.995Z,89.21
2023-02-19T05:31:51.836Z,89.37
2023-02-19T05:34:20.559Z,89.18
2023-02-19T05:36:49.227Z,89.46
2023-02-19T05:39:17.797Z,88.78
2023-02-19T05:41:46.322Z,88.92
2023-02-19T05:44:14.926Z,88.28
2023-02-19T05:46:44.953Z,88.41
2023-02-19T05:49:13.841Z,87.94
2023-02-19T05:51:42.489Z,88.23
2023-02-19T05:54:11.118Z,87.39
2023-02-19T05:56:40.664Z,87.63
2023-02-19T05:59:16.570Z,87.17
2023-02-19T06:01:46.693Z,85.86
2023-02-19T06:04:15.669Z,85.57
2023-02-19T06:06:44.601Z,85.65
2023-02-19T06:09:13.510Z,85.82
2023-02-19T06:11:43.424Z,85.99
2023-02-19T06:14:13.430Z,85.79
2023-02-19T06:16:42.487Z,86.34
2023-02-19T06:19:12.390Z,87.28
2023-02-19T06:21:41.445Z,89.05
2023-02-19T06:24:10.681Z,90.26
2023-02-19T06:26:39.502Z,90.57
2023-02-19T06:29:08.142Z,90.67
2023-02-19T06:31:36.803Z,90.92
2023-02-19T06:34:05.931Z,91.55
2023-02-19T06:36:36.099Z,90.17
2023-02-19T06:39:06.007Z,91.46
2023-02-19T06:41:34.856Z,91.15
2023-02-19T06:44:03.602Z,90.01
2023-02-19T06:46:32.200Z,89.53
2023-02-19T06:49:00.845Z,90.82
2023-02-19T06:51:29.770Z,90.26
2023-02-19T06:54:02.166Z,90.37
2023-02-19T06:56:32.384Z,88.15
2023-02-19T06:59:02.672Z,88.15
2023-02-19T07:01:32.320Z,87.50
2023-02-19T07:04:01.274Z,87.00
2023-02-19T07:06:30.560Z,86.38
2023-02-19T07:09:00.906Z,84.22
2023-02-19T07:11:32.229Z,83.73
2023-02-19T07:14:02.586Z,83.60
2023-02-19T07:16:31.680Z,83.16
2023-02-19T07:19:01.233Z,82.80
2023-02-19T07:21:30.272Z,82.94
2023-02-19T07:24:00.246Z,82.79
2023-02-19T07:26:28.926Z,82.37
2023-02-19T07:28:57.578Z,82.11
2023-02-19T07:31:26.298Z,82.34
2023-02-19T07:33:55.646Z,82.93
2023-02-19T07:36:25.196Z,82.56
2023-02-19T07:38:57.376Z,82.65
2023-02-19T07:41:28.312Z,83.01
2023-02-19T07:43:56.930Z,82.39
2023-02-19T07:46:26.036Z,81.89
2023-02-19T07:48:54.606Z,82.49
2023-02-19T07:51:23.605Z,80.95
2023-02-19T07:53:52.194Z,80.30
2023-02-19T07:56:21.070Z,79.51
2023-02-19T07:58:51.060Z,79.04
2023-02-19T08:01:41.062Z,78.47
2023-02-19T08:04:08.866Z,76.81
2023-02-19T08:06:37.424Z,76.25
2023-02-19T08:09:06.612Z,75.86
2023-02-19T08:11:52.743Z,76.01
2023-02-19T08:14:25.726Z,75.72
2023-02-19T08:16:54.685Z,76.15
2023-02-19T08:19:23.748Z,75.68
2023-02-19T08:21:53.414Z,75.63
2023-02-19T08:24:22.179Z,75.58
2023-02-19T08:26:51.089Z,75.46
2023-02-19T08:29:19.813Z,75.46
2023-02-19T08:31:50.021Z,74.44
2023-02-19T08:34:18.779Z,74.22
2023-02-19T08:36:47.446Z,75.36
2023-02-19T08:39:16.126Z,73.95
2023-02-19T08:41:44.890Z,83.13
2023-02-19T08:44:13.585Z,78.71
2023-02-19T08:46:42.201Z,76.04
2023-02-19T08:49:12.143Z,74.72
2023-02-19T08:51:40.720Z,74.38
2023-02-19T08:54:09.298Z,74.61
2023-02-19T08:56:37.903Z,74.53
2023-02-19T08:59:06.690Z,75.55
2023-02-19T09:01:35.601Z,74.67
2023-02-19T09:04:04.644Z,74.70
2023-02-19T09:06:34.659Z,74.82
2023-02-19T09:09:03.299Z,74.46
2023-02-19T09:11:31.936Z,74.79
2023-02-19T09:14:02.062Z,73.72
2023-02-19T09:16:30.650Z,74.39
2023-02-19T09:18:59.334Z,74.21
2023-02-19T09:21:28.266Z,74.19
2023-02-19T09:23:58.262Z,74.75
2023-02-19T09:26:26.983Z,74.30
2023-02-19T09:28:56.082Z,73.86
2023-02-19T09:31:24.876Z,73.94
2023-02-19T09:33:53.634Z,73.21
2023-02-19T09:36:22.266Z,72.05
2023-02-19T09:38:50.931Z,71.50
2023-02-19T09:41:25.133Z,70.91
2023-02-19T09:43:53.912Z,71.22
2023-02-19T09:46:26.395Z,69.74
2023-02-19T09:48:57.077Z,69.38
2023-02-19T09:51:29.052Z,68.22
2023-02-19T09:53:58.519Z,68.24
2023-02-19T09:56:28.867Z,67.20
2023-02-19T09:58:59.600Z,67.24
2023-02-19T10:01:31.654Z,65.32
2023-02-19T10:04:00.479Z,65.35
2023-02-19T10:06:30.330Z,64.91
2023-02-19T10:09:12.688Z,64.35
2023-02-19T10:11:43.000Z,62.80
2023-02-19T10:14:17.007Z,63.51
2023-02-19T10:16:47.210Z,63.96
2023-02-19T10:19:16.711Z,63.60
2023-02-19T10:21:45.628Z,63.07
2023-02-19T10:24:19.699Z,63.15
2023-02-19T10:26:50.998Z,62.37
2023-02-19T10:29:21.641Z,61.88
2023-02-19T10:31:52.157Z,62.64
2023-02-19T10:34:22.289Z,61.83
2023-02-19T10:36:52.017Z,61.95
2023-02-19T10:39:38.718Z,62.93
2023-02-19T10:42:16.054Z,63.09
2023-02-19T10:44:47.155Z,63.13
2023-02-19T10:47:20.636Z,63.10
2023-02-19T10:49:50.596Z,62.89
2023-02-19T10:52:22.778Z,63.56
2023-02-19T10:54:53.326Z,63.26
2023-02-19T10:57:41.319Z,63.55
2023-02-19T11:00:24.195Z,63.43
2023-02-19T11:03:20.762Z,63.06
2023-02-19T11:05:57.119Z,62.74
2023-02-19T11:08:25.841Z,63.44
2023-02-19T11:10:54.644Z,63.43
2023-02-19T11:13:30.358Z,62.25
2023-02-19T11:15:59.888Z,60.74
2023-02-19T11:18:30.599Z,60.78
2023-02-19T11:21:00.656Z,61.31
2023-02-19T11:23:30.870Z,59.86
2023-02-19T11:26:02.606Z,59.52
2023-02-19T11:28:34.159Z,58.40
2023-02-19T11:31:23.528Z,58.22
2023-02-19T11:33:56.198Z,58.84
2023-02-19T11:36:30.973Z,58.51
2023-02-19T11:39:01.091Z,58.23
2023-02-19T11:41:53.473Z,58.70
2023-02-19T11:44:32.564Z,58.81
2023-02-19T11:47:22.340Z,58.87
2023-02-19T11:49:56.832Z,58.72
2023-02-19T11:52:30.741Z,58.99
2023-02-19T11:55:08.876Z,59.41
2023-02-19T11:57:43.896Z,59.49
2023-02-19T12:00:28.689Z,59.61
2023-02-19T12:03:23.321Z,59.72
2023-02-19T12:06:07.189Z,59.56
2023-02-19T12:08:59.029Z,59.99
2023-02-19T12:11:41.448Z,58.28
2023-02-19T12:14:23.718Z,58.85
2023-02-19T12:16:56.203Z,58.84
2023-02-19T12:19:39.169Z,58.58
2023-02-19T12:22:19.774Z,59.38
2023-02-19T12:25:00.923Z,59.92
2023-02-19T12:27:39.360Z,59.97
2023-02-19T12:30:21.212Z,59.17
2023-02-19T12:33:09.312Z,59.77
2023-02-19T12:35:54.922Z,59.30
2023-02-19T12:38:28.165Z,58.60
2023-02-19T12:41:13.173Z,57.93
2023-02-19T12:43:44.922Z,57.57
2023-02-19T12:46:16.494Z,58.11
2023-02-19T12:48:50.119Z,58.45
2023-02-19T12:51:23.698Z,58.88
2023-02-19T12:53:55.697Z,58.87
2023-02-19T12:56:27.203Z,58.48
2023-02-19T12:58:59.414Z,58.44
2023-02-19T13:01:31.911Z,58.85
2023-02-19T13:04:15.499Z,57.36
2023-02-19T13:06:46.533Z,57.64
2023-02-19T13:09:18.991Z,58.24
2023-02-19T13:11:50.204Z,58.41
2023-02-19T13:14:22.864Z,57.49
2023-02-19T13:16:53.950Z,57.30
2023-02-19T13:19:24.086Z,58.34
2023-02-19T13:22:16.177Z,58.23
2023-02-19T13:24:46.720Z,57.09
2023-02-19T13:27:34.585Z,57.97
2023-02-19T13:30:20.168Z,57.66
2023-02-19T13:32:59.888Z,57.74
2023-02-19T13:35:56.872Z,58.35
2023-02-19T13:38:25.734Z,57.64
2023-02-19T13:40:55.577Z,58.73
2023-02-19T13:43:26.536Z,58.15
2023-02-19T13:45:57.948Z,58.47
2023-02-19T13:48:29.363Z,58.40
2023-02-19T13:51:31.315Z,58.45
2023-02-19T13:54:02.194Z,59.08
2023-02-19T13:56:41.128Z,59.32
2023-02-19T13:59:40.781Z,59.20
2023-02-19T14:02:28.592Z,59.21
2023-02-19T14:05:00.098Z,58.57
2023-02-19T14:07:55.196Z,59.70
2023-02-19T14:10:57.527Z,59.29
2023-02-19T14:13:59.412Z,59.14
2023-02-19T14:16:52.790Z,59.48
2023-02-19T14:20:01.494Z,59.09
2023-02-19T14:23:10.434Z,59.20
2023-02-19T14:25:44.814Z,59.29
2023-02-19T14:28:27.065Z,58.40
2023-02-19T14:30:57.648Z,59.27
2023-02-19T14:33:28.143Z,59.47
2023-02-19T14:36:00.622Z,59.09
2023-02-19T14:38:31.625Z,59.03
2023-02-19T14:41:00.724Z,58.98
2023-02-19T14:43:31.180Z,58.73
2023-02-19T14:46:02.625Z,59.18
2023-02-19T14:48:35.074Z,58.86
2023-02-19T14:51:08.309Z,57.94
2023-02-19T14:53:39.521Z,58.83
2023-02-19T14:56:19.562Z,59.35
2023-02-19T14:59:07.048Z,58.56
2023-02-19T15:01:35.890Z,58.80
2023-02-19T15:04:04.924Z,58.95
2023-02-19T15:06:35.562Z,58.58
2023-02-19T15:09:07.044Z,59.22
2023-02-19T15:11:36.332Z,59.52
2023-02-19T15:14:07.721Z,59.45
2023-02-19T15:16:37.014Z,59.23
2023-02-19T15:19:07.546Z,59.51
2023-02-19T15:21:39.014Z,59.05
2023-02-19T15:24:08.238Z,59.09
2023-02-19T15:26:38.257Z,59.01
2023-02-19T15:29:13.480Z,60.14
2023-02-19T15:31:46.625Z,59.34
2023-02-19T15:34:17.639Z,60.05
2023-02-19T15:36:46.596Z,59.96
2023-02-19T15:39:20.809Z,60.24
2023-02-19T15:41:55.443Z,60.31
2023-02-19T15:44:39.171Z,60.97
2023-02-19T15:47:13.124Z,61.31
2023-02-19T15:49:48.017Z,60.95
2023-02-19T15:52:26.202Z,61.15
2023-02-19T15:54:59.258Z,61.32
2023-02-19T15:57:32.409Z,61.39
2023-02-19T16:00:04.859Z,61.65
2023-02-19T16:02:33.743Z,61.92
2023-02-19T16:05:03.333Z,62.41
2023-02-19T16:07:32.913Z,62.55
2023-02-19T16:10:19.396Z,62.98
2023-02-19T16:12:56.909Z,63.31
2023-02-19T16:15:27.642Z,63.31
2023-02-19T16:17:56.835Z,64.13
2023-02-19T16:20:27.869Z,64.80
2023-02-19T16:22:59.075Z,64.40
2023-02-19T16:25:31.814Z,63.75
2023-02-19T16:28:00.620Z,64.35
2023-02-19T16:30:34.143Z,64.50
2023-02-19T16:33:22.436Z,64.38
2023-02-19T16:35:52.412Z,63.96
2023-02-19T16:38:21.689Z,64.15
2023-02-19T16:41:05.783Z,64.59
2023-02-19T16:43:40.931Z,63.96
2023-02-19T16:46:13.127Z,64.17
2023-02-19T16:48:41.836Z,64.60
2023-02-19T16:51:18.000Z,64.57
2023-02-19T16:53:46.667Z,65.51
2023-02-19T16:56:18.521Z,65.16
2023-02-19T16:58:47.114Z,66.13
2023-02-19T17:01:17.336Z,66.16
2023-02-19T17:03:46.921Z,66.58
2023-02-19T17:06:15.745Z,66.63
2023-02-19T17:08:44.820Z,67.42
2023-02-19T17:11:14.851Z,67.24
2023-02-19T17:13:44.947Z,67.15
2023-02-19T17:16:20.162Z,67.59
2023-02-19T17:18:48.986Z,67.95
2023-02-19T17:21:20.472Z,68.13
2023-02-19T17:23:49.058Z,68.15
2023-02-19T17:26:19.270Z,68.61
2023-02-19T17:28:47.944Z,69.07
2023-02-19T17:31:17.110Z,69.09
2023-02-19T17:33:47.306Z,70.07
2023-02-19T17:36:18.658Z,70.18
2023-02-19T17:38:47.430Z,71.21
2023-02-19T17:41:16.399Z,71.44
2023-02-19T17:43:45.646Z,71.79
2023-02-19T17:46:15.962Z,71.41
2023-02-19T17:48:44.840Z,71.52
2023-02-19T17:51:15.405Z,71.74
2023-02-19T17:53:46.408Z,72.18
2023-02-19T17:56:17.399Z,71.82
2023-02-19T17:58:46.317Z,72.83
2023-02-19T18:01:15.610Z,72.48
2023-02-19T18:03:44.707Z,72.62
2023-02-19T18:06:15.088Z,72.81
2023-02-19T18:08:48.753Z,72.80
2023-02-19T18:11:17.597Z,72.98
2023-02-19T18:13:48.003Z,72.74
2023-02-19T18:16:17.250Z,72.89
2023-02-19T18:18:46.405Z,73.05
2023-02-19T18:21:16.504Z,72.29
2023-02-19T18:23:46.004Z,71.70
2023-02-19T18:26:20.530Z,71.79
2023-02-19T18:28:49.660Z,72.57
2023-02-19T18:31:18.397Z,72.53
2023-02-19T18:33:47.211Z,72.28
2023-02-19T18:36:17.195Z,72.00
2023-02-19T18:38:46.553Z,71.71
2023-02-19T18:41:19.580Z,72.09
2023-02-19T18:43:48.819Z,72.07
2023-02-19T18:46:17.669Z,72.04
2023-02-19T18:48:46.329Z,70.95
2023-02-19T18:51:14.986Z,71.35
2023-02-19T18:53:45.106Z,71.80
2023-02-19T18:56:13.666Z,71.43
2023-02-19T18:58:42.295Z,72.20
2023-02-19T19:01:11.408Z,71.81
2023-02-19T19:03:40.276Z,72.51
2023-02-19T19:06:08.995Z,72.35
2023-02-19T19:08:37.614Z,72.52
2023-02-19T19:11:07.774Z,73.20
2023-02-19T19:13:36.376Z,72.63
2023-02-19T19:16:05.628Z,72.87
2023-02-19T19:18:38.044Z,72.91
2023-02-19T19:21:09.529Z,72.25
2023-02-19T19:23:38.404Z,72.80
2023-02-19T19:26:08.746Z,72.08
2023-02-19T19:28:40.622Z,72.01
2023-02-19T19:31:09.413Z,72.00
2023-02-19T19:33:38.178Z,72.17
2023-02-19T19:36:07.647Z,72.57
2023-02-19T19:38:36.559Z,72.60
2023-02-19T19:41:05.974Z,72.45
2023-02-19T19:43:36.019Z,72.79
2023-02-19T19:46:05.064Z,72.94
2023-02-19T19:48:33.900Z,72.93
2023-02-19T19:51:02.718Z,72.86
2023-02-19T19:53:31.493Z,72.51
2023-02-19T19:56:01.526Z,73.17
2023-02-19T19:58:30.580Z,73.30
2023-02-19T20:01:01.737Z,73.49
2023-02-19T20:03:32.317Z,74.13
2023-02-19T20:06:02.326Z,73.64
2023-02-19T20:08:31.093Z,73.79
2023-02-19T20:10:59.826Z,73.50
2023-02-19T20:13:30.503Z,74.02
2023-02-19T20:16:00.555Z,73.39
2023-02-19T20:18:29.221Z,72.76
2023-02-19T20:20:57.936Z,73.45
2023-02-19T20:23:27.605Z,72.68
2023-02-19T20:25:57.566Z,72.81
2023-02-19T20:28:26.409Z,72.67
2023-02-19T20:30:55.198Z,72.71
2023-02-19T20:33:25.263Z,72.81
2023-02-19T20:35:53.884Z,73.44
2023-02-19T20:38:22.555Z,73.03
2023-02-19T20:40:51.257Z,73.92
2023-02-19T20:43:19.970Z,73.03
2023-02-19T20:45:48.720Z,73.20
2023-02-19T20:48:18.080Z,72.89
2023-02-19T20:50:48.127Z,72.02
2023-02-19T20:53:18.315Z,72.32
2023-02-19T20:55:52.470Z,72.32
2023-02-19T20:58:21.201Z,72.24
2023-02-19T21:00:50.460Z,72.37
2023-02-19T21:03:19.395Z,72.15
2023-02-19T21:05:49.992Z,72.28
2023-02-19T21:08:18.804Z,72.45
2023-02-19T21:10:47.761Z,72.30
2023-02-19T21:13:16.665Z,72.20
2023-02-19T21:15:45.469Z,73.02
2023-02-19T21:18:14.140Z,72.98
2023-02-19T21:20:42.837Z,73.35
2023-02-19T21:23:13.958Z,73.55
2023-02-19T21:25:42.652Z,74.10
2023-02-19T21:28:12.398Z,73.83
2023-02-19T21:30:41.127Z,74.49
2023-02-19T21:33:09.882Z,74.34
2023-02-19T21:35:38.625Z,73.99
2023-02-19T21:38:07.275Z,74.25
2023-02-19T21:40:37.673Z,73.97
2023-02-19T21:43:06.396Z,74.38
2023-02-19T21:45:35.100Z,74.62
2023-02-19T21:48:03.783Z,74.86
2023-02-19T21:50:32.394Z,74.56
2023-02-19T21:53:01.412Z,74.15
2023-02-19T21:55:30.145Z,74.56
2023-02-19T21:58:00.153Z,74.82
2023-02-19T22:00:28.789Z,75.01
2023-02-19T22:02:57.521Z,75.29
2023-02-19T22:05:26.673Z,75.13
2023-02-19T22:07:55.392Z,74.83
2023-02-19T22:10:23.990Z,75.40
2023-02-19T22:12:52.626Z,74.57
2023-02-19T22:15:22.564Z,75.19
2023-02-19T22:17:51.342Z,74.68
2023-02-19T22:20:21.645Z,74.97
2023-02-19T22:22:50.359Z,74.70
2023-02-19T22:25:19.230Z,75.23
2023-02-19T22:27:48.946Z,75.63
2023-02-19T22:30:18.034Z,75.10
2023-02-19T22:32:48.175Z,74.94
2023-02-19T22:35:17.081Z,75.93
2023-02-19T22:37:45.780Z,75.74
2023-02-19T22:40:14.766Z,75.79
2023-02-19T22:42:43.565Z,76.07
2023-02-19T22:45:12.683Z,75.82
2023-02-19T22:47:41.995Z,75.74
2023-02-19T22:50:18.487Z,76.09
2023-02-19T22:52:47.193Z,75.43
2023-02-19T22:55:16.863Z,75.64
2023-02-19T22:57:45.545Z,75.65
2023-02-19T23:00:18.229Z,75.72
2023-02-19T23:02:48.250Z,75.80
2023-02-19T23:05:18.522Z,75.48
2023-02-19T23:07:47.114Z,75.25
2023-02-19T23:10:15.793Z,75.77
2023-02-19T23:12:44.445Z,75.31
2023-02-19T23:15:14.509Z,76.26
2023-02-19T23:17:43.183Z,75.80
2023-02-19T23:20:12.531Z,75.76
2023-02-19T23:22:43.520Z,76.22
2023-02-19T23:25:12.139Z,76.30
2023-02-19T23:27:40.813Z,76.21
2023-02-19T23:30:10.218Z,76.69
2023-02-19T23:32:38.906Z,76.67
2023-02-19T23:35:08.122Z,76.37
2023-02-19T23:37:36.825Z,76.62
2023-02-19T23:40:08.096Z,76.28
2023-02-19T23:42:37.403Z,76.66
2023-02-19T23:45:06.560Z,76.80
2023-02-19T23:47:35.199Z,77.30
2023-02-19T23:50:03.886Z,77.15
2023-02-19T23:52:32.524Z,77.04
2023-02-19T23:55:01.213Z,76.63
2023-02-19T23:57:31.231Z,77.39
2023-02-19T23:59:59.836Z,76.68
